sensor_id;sensor_type;location;lat;lon;timestamp;P1;durP1;ratioP1;P2;durP2;ratioP2
58820;SDS011;70670;52.476;13.334;2023-07-02T00:01:03;0.93;;;0.93;;
58820;SDS011;70670;52.476;13.334;2023-07-02T00:03:48;3.03;;;1.27;;
58820;SDS011;70670;52.476;13.334;2023-07-02T00:06:14;1.13;;;1.10;;
58820;SDS011;70670;52.476;13.334;2023-07-02T00:08:40;1.40;;;1.30;;
58820;SDS011;70670;52.476;13.334;2023-07-02T00:11:05;1.20;;;1.20;;
58820;SDS011;70670;52.476;13.334;2023-07-02T00:13:31;1.48;;;1.42;;
58820;SDS011;70670;52.476;13.334;2023-07-02T00:15:57;2.45;;;2.25;;
58820;SDS011;70670;52.476;13.334;2023-07-02T00:18:24;2.05;;;1.67;;
58820;SDS011;70670;52.476;13.334;2023-07-02T00:20:54;1.83;;;1.73;;
58820;SDS011;70670;52.476;13.334;2023-07-02T00:23:19;1.90;;;1.80;;
58820;SDS011;70670;52.476;13.334;2023-07-02T00:25:46;3.08;;;1.75;;
58820;SDS011;70670;52.476;13.334;2023-07-02T00:28:12;1.88;;;1.77;;
58820;SDS011;70670;52.476;13.334;2023-07-02T00:30:37;2.28;;;1.90;;
58820;SDS011;70670;52.476;13.334;2023-07-02T00:33:03;2.00;;;1.90;;
58820;SDS011;70670;52.476;13.334;2023-07-02T00:35:28;2.15;;;1.60;;
58820;SDS011;70670;52.476;13.334;2023-07-02T00:37:54;2.00;;;1.90;;
58820;SDS011;70670;52.476;13.334;2023-07-02T00:40:20;2.42;;;2.28;;
58820;SDS011;70670;52.476;13.334;2023-07-02T00:42:45;2.08;;;1.98;;
58820;SDS011;70670;52.476;13.334;2023-07-02T00:45:11;2.50;;;2.30;;
58820;SDS011;70670;52.476;13.334;2023-07-02T00:47:37;3.03;;;2.00;;
58820;SDS011;70670;52.476;13.334;2023-07-02T00:50:02;2.40;;;2.20;;
58820;SDS011;70670;52.476;13.334;2023-07-02T00:52:28;3.10;;;2.47;;
58820;SDS011;70670;52.476;13.334;2023-07-02T00:54:53;2.70;;;2.47;;
58820;SDS011;70670;52.476;13.334;2023-07-02T00:57:19;3.75;;;3.45;;
58820;SDS011;70670;52.476;13.334;2023-07-02T00:59:45;5.07;;;2.92;;
58820;SDS011;70670;52.476;13.334;2023-07-02T01:02:11;3.22;;;2.50;;
58820;SDS011;70670;52.476;13.334;2023-07-02T01:04:38;4.65;;;2.97;;
58820;SDS011;70670;52.476;13.334;2023-07-02T01:07:04;2.92;;;2.72;;
58820;SDS011;70670;52.476;13.334;2023-07-02T01:09:35;3.30;;;2.97;;
58820;SDS011;70670;52.476;13.334;2023-07-02T01:12:04;3.38;;;3.17;;
58820;SDS011;70670;52.476;13.334;2023-07-02T01:14:33;4.88;;;3.25;;
58820;SDS011;70670;52.476;13.334;2023-07-02T01:17:03;4.50;;;3.28;;
58820;SDS011;70670;52.476;13.334;2023-07-02T01:19:42;3.17;;;2.88;;
58820;SDS011;70670;52.476;13.334;2023-07-02T01:22:17;4.93;;;3.20;;
58820;SDS011;70670;52.476;13.334;2023-07-02T01:24:44;3.90;;;3.38;;
58820;SDS011;70670;52.476;13.334;2023-07-02T01:27:12;3.80;;;2.93;;
58820;SDS011;70670;52.476;13.334;2023-07-02T01:29:40;8.75;;;4.00;;
58820;SDS011;70670;52.476;13.334;2023-07-02T01:32:05;4.10;;;3.78;;
58820;SDS011;70670;52.476;13.334;2023-07-02T01:34:31;5.43;;;4.00;;
58820;SDS011;70670;52.476;13.334;2023-07-02T01:36:57;4.28;;;3.78;;
58820;SDS011;70670;52.476;13.334;2023-07-02T01:39:22;6.28;;;4.10;;
58820;SDS011;70670;52.476;13.334;2023-07-02T01:41:55;6.50;;;4.68;;
58820;SDS011;70670;52.476;13.334;2023-07-02T01:44:31;5.82;;;4.35;;
58820;SDS011;70670;52.476;13.334;2023-07-02T01:46:57;6.03;;;4.38;;
58820;SDS011;70670;52.476;13.334;2023-07-02T01:49:24;4.90;;;4.25;;
58820;SDS011;70670;52.476;13.334;2023-07-02T01:51:53;9.50;;;4.80;;
58820;SDS011;70670;52.476;13.334;2023-07-02T01:54:19;5.22;;;4.80;;
58820;SDS011;70670;52.476;13.334;2023-07-02T01:56:47;5.78;;;5.15;;
58820;SDS011;70670;52.476;13.334;2023-07-02T01:59:13;5.72;;;5.22;;
58820;SDS011;70670;52.476;13.334;2023-07-02T02:01:39;5.25;;;4.75;;
58820;SDS011;70670;52.476;13.334;2023-07-02T02:04:07;5.63;;;5.13;;
58820;SDS011;70670;52.476;13.334;2023-07-02T02:06:33;10.45;;;5.10;;
58820;SDS011;70670;52.476;13.334;2023-07-02T02:08:59;12.40;;;4.93;;
58820;SDS011;70670;52.476;13.334;2023-07-02T02:11:25;5.25;;;4.75;;
58820;SDS011;70670;52.476;13.334;2023-07-02T02:13:51;5.80;;;4.22;;
58820;SDS011;70670;52.476;13.334;2023-07-02T02:16:16;6.65;;;4.55;;
58820;SDS011;70670;52.476;13.334;2023-07-02T02:18:42;5.00;;;4.43;;
58820;SDS011;70670;52.476;13.334;2023-07-02T02:21:08;5.60;;;4.72;;
58820;SDS011;70670;52.476;13.334;2023-07-02T02:23:33;4.68;;;4.07;;
58820;SDS011;70670;52.476;13.334;2023-07-02T02:25:59;4.60;;;4.30;;
58820;SDS011;70670;52.476;13.334;2023-07-02T02:28:25;6.05;;;4.53;;
58820;SDS011;70670;52.476;13.334;2023-07-02T02:30:50;5.75;;;4.68;;
58820;SDS011;70670;52.476;13.334;2023-07-02T02:33:16;5.88;;;3.80;;
58820;SDS011;70670;52.476;13.334;2023-07-02T02:35:42;4.60;;;4.20;;
58820;SDS011;70670;52.476;13.334;2023-07-02T02:38:08;5.00;;;3.80;;
58820;SDS011;70670;52.476;13.334;2023-07-02T02:40:34;5.85;;;3.90;;
58820;SDS011;70670;52.476;13.334;2023-07-02T02:43:00;6.22;;;4.03;;
58820;SDS011;70670;52.476;13.334;2023-07-02T02:45:25;8.25;;;4.00;;
58820;SDS011;70670;52.476;13.334;2023-07-02T02:47:51;9.05;;;3.90;;
58820;SDS011;70670;52.476;13.334;2023-07-02T02:50:17;4.63;;;3.60;;
58820;SDS011;70670;52.476;13.334;2023-07-02T02:52:42;4.82;;;4.20;;
58820;SDS011;70670;52.476;13.334;2023-07-02T02:55:09;5.03;;;4.53;;
58820;SDS011;70670;52.476;13.334;2023-07-02T02:57:35;4.07;;;3.55;;
58820;SDS011;70670;52.476;13.334;2023-07-02T03:00:01;4.97;;;4.13;;
58820;SDS011;70670;52.476;13.334;2023-07-02T03:02:27;4.60;;;3.90;;
58820;SDS011;70670;52.476;13.334;2023-07-02T03:04:53;5.85;;;3.50;;
58820;SDS011;70670;52.476;13.334;2023-07-02T03:07:19;6.50;;;3.92;;
58820;SDS011;70670;52.476;13.334;2023-07-02T03:09:44;4.90;;;3.60;;
58820;SDS011;70670;52.476;13.334;2023-07-02T03:12:10;4.30;;;3.90;;
58820;SDS011;70670;52.476;13.334;2023-07-02T03:14:36;4.90;;;3.65;;
58820;SDS011;70670;52.476;13.334;2023-07-02T03:17:01;8.07;;;4.13;;
58820;SDS011;70670;52.476;13.334;2023-07-02T03:19:28;5.50;;;3.58;;
58820;SDS011;70670;52.476;13.334;2023-07-02T03:21:53;4.15;;;3.53;;
58820;SDS011;70670;52.476;13.334;2023-07-02T03:24:19;3.92;;;3.63;;
58820;SDS011;70670;52.476;13.334;2023-07-02T03:26:45;5.93;;;3.58;;
58820;SDS011;70670;52.476;13.334;2023-07-02T03:29:11;6.10;;;3.35;;
58820;SDS011;70670;52.476;13.334;2023-07-02T03:31:37;5.60;;;3.50;;
58820;SDS011;70670;52.476;13.334;2023-07-02T03:34:03;7.72;;;3.58;;
58820;SDS011;70670;52.476;13.334;2023-07-02T03:36:31;6.65;;;3.42;;
58820;SDS011;70670;52.476;13.334;2023-07-02T03:38:57;5.47;;;3.50;;
58820;SDS011;70670;52.476;13.334;2023-07-02T03:41:23;3.80;;;3.25;;
58820;SDS011;70670;52.476;13.334;2023-07-02T03:43:49;3.40;;;3.10;;
58820;SDS011;70670;52.476;13.334;2023-07-02T03:46:14;5.18;;;2.75;;
58820;SDS011;70670;52.476;13.334;2023-07-02T03:48:40;4.32;;;3.15;;
58820;SDS011;70670;52.476;13.334;2023-07-02T03:51:06;3.40;;;3.10;;
58820;SDS011;70670;52.476;13.334;2023-07-02T03:53:31;5.03;;;3.00;;
58820;SDS011;70670;52.476;13.334;2023-07-02T03:55:57;7.88;;;3.08;;
58820;SDS011;70670;52.476;13.334;2023-07-02T03:58:23;3.38;;;2.50;;
58820;SDS011;70670;52.476;13.334;2023-07-02T04:00:48;5.50;;;2.70;;
58820;SDS011;70670;52.476;13.334;2023-07-02T04:03:17;3.13;;;2.90;;
58820;SDS011;70670;52.476;13.334;2023-07-02T04:05:43;3.22;;;2.88;;
58820;SDS011;70670;52.476;13.334;2023-07-02T04:08:09;5.38;;;2.70;;
58820;SDS011;70670;52.476;13.334;2023-07-02T04:10:35;3.70;;;3.22;;
58820;SDS011;70670;52.476;13.334;2023-07-02T04:13:01;5.28;;;3.00;;
58820;SDS011;70670;52.476;13.334;2023-07-02T04:15:26;4.85;;;2.83;;
58820;SDS011;70670;52.476;13.334;2023-07-02T04:17:52;12.25;;;3.10;;
58820;SDS011;70670;52.476;13.334;2023-07-02T04:20:18;4.20;;;2.63;;
58820;SDS011;70670;52.476;13.334;2023-07-02T04:22:45;3.63;;;2.65;;
58820;SDS011;70670;52.476;13.334;2023-07-02T04:25:11;5.20;;;3.03;;
58820;SDS011;70670;52.476;13.334;2023-07-02T04:27:40;5.57;;;2.97;;
58820;SDS011;70670;52.476;13.334;2023-07-02T04:30:12;6.82;;;2.90;;
58820;SDS011;70670;52.476;13.334;2023-07-02T04:32:38;3.13;;;2.38;;
58820;SDS011;70670;52.476;13.334;2023-07-02T04:35:06;3.83;;;3.03;;
58820;SDS011;70670;52.476;13.334;2023-07-02T04:37:36;5.45;;;2.47;;
58820;SDS011;70670;52.476;13.334;2023-07-02T04:40:02;5.53;;;2.67;;
58820;SDS011;70670;52.476;13.334;2023-07-02T04:42:35;5.05;;;2.35;;
58820;SDS011;70670;52.476;13.334;2023-07-02T04:45:05;7.88;;;2.83;;
58820;SDS011;70670;52.476;13.334;2023-07-02T04:47:32;7.03;;;2.60;;
58820;SDS011;70670;52.476;13.334;2023-07-02T04:49:58;4.28;;;2.25;;
58820;SDS011;70670;52.476;13.334;2023-07-02T04:52:24;6.72;;;2.80;;
58820;SDS011;70670;52.476;13.334;2023-07-02T04:54:49;6.45;;;2.50;;
58820;SDS011;70670;52.476;13.334;2023-07-02T04:57:15;3.83;;;2.55;;
58820;SDS011;70670;52.476;13.334;2023-07-02T04:59:41;2.80;;;2.47;;
58820;SDS011;70670;52.476;13.334;2023-07-02T05:02:07;5.70;;;2.72;;
58820;SDS011;70670;52.476;13.334;2023-07-02T05:04:33;5.07;;;2.33;;
58820;SDS011;70670;52.476;13.334;2023-07-02T05:07:02;4.95;;;2.63;;
58820;SDS011;70670;52.476;13.334;2023-07-02T05:09:27;4.97;;;2.20;;
58820;SDS011;70670;52.476;13.334;2023-07-02T05:11:53;5.38;;;2.70;;
58820;SDS011;70670;52.476;13.334;2023-07-02T05:14:18;2.97;;;2.20;;
58820;SDS011;70670;52.476;13.334;2023-07-02T05:16:44;6.82;;;2.50;;
58820;SDS011;70670;52.476;13.334;2023-07-02T05:19:10;3.97;;;2.70;;
58820;SDS011;70670;52.476;13.334;2023-07-02T05:21:35;6.25;;;2.60;;
58820;SDS011;70670;52.476;13.334;2023-07-02T05:24:01;3.67;;;2.50;;
58820;SDS011;70670;52.476;13.334;2023-07-02T05:26:27;4.93;;;2.42;;
58820;SDS011;70670;52.476;13.334;2023-07-02T05:28:53;3.20;;;2.58;;
58820;SDS011;70670;52.476;13.334;2023-07-02T05:31:18;2.63;;;2.38;;
58820;SDS011;70670;52.476;13.334;2023-07-02T05:33:44;5.40;;;2.22;;
58820;SDS011;70670;52.476;13.334;2023-07-02T05:36:10;4.90;;;2.47;;
58820;SDS011;70670;52.476;13.334;2023-07-02T05:38:36;6.53;;;2.42;;
58820;SDS011;70670;52.476;13.334;2023-07-02T05:41:02;4.45;;;2.50;;
58820;SDS011;70670;52.476;13.334;2023-07-02T05:43:28;7.03;;;2.60;;
58820;SDS011;70670;52.476;13.334;2023-07-02T05:45:54;4.43;;;2.40;;
58820;SDS011;70670;52.476;13.334;2023-07-02T05:48:19;4.43;;;2.47;;
58820;SDS011;70670;52.476;13.334;2023-07-02T05:50:45;4.88;;;2.40;;
58820;SDS011;70670;52.476;13.334;2023-07-02T05:53:10;4.93;;;2.72;;
58820;SDS011;70670;52.476;13.334;2023-07-02T05:55:37;6.70;;;2.33;;
58820;SDS011;70670;52.476;13.334;2023-07-02T05:58:02;6.32;;;2.30;;
58820;SDS011;70670;52.476;13.334;2023-07-02T06:00:28;7.38;;;2.75;;
58820;SDS011;70670;52.476;13.334;2023-07-02T06:02:54;5.07;;;2.30;;
58820;SDS011;70670;52.476;13.334;2023-07-02T06:05:20;2.53;;;2.22;;
58820;SDS011;70670;52.476;13.334;2023-07-02T06:07:45;4.70;;;2.25;;
58820;SDS011;70670;52.476;13.334;2023-07-02T06:10:11;4.63;;;1.80;;
58820;SDS011;70670;52.476;13.334;2023-07-02T06:12:37;5.55;;;2.13;;
58820;SDS011;70670;52.476;13.334;2023-07-02T06:15:03;8.55;;;2.00;;
58820;SDS011;70670;52.476;13.334;2023-07-02T06:17:28;3.90;;;2.08;;
58820;SDS011;70670;52.476;13.334;2023-07-02T06:19:56;4.38;;;2.28;;
58820;SDS011;70670;52.476;13.334;2023-07-02T06:22:22;5.32;;;2.30;;
58820;SDS011;70670;52.476;13.334;2023-07-02T06:24:48;2.88;;;1.83;;
58820;SDS011;70670;52.476;13.334;2023-07-02T06:27:14;4.35;;;2.30;;
58820;SDS011;70670;52.476;13.334;2023-07-02T06:29:40;3.20;;;2.08;;
58820;SDS011;70670;52.476;13.334;2023-07-02T06:32:05;6.30;;;2.13;;
58820;SDS011;70670;52.476;13.334;2023-07-02T06:34:31;5.60;;;2.38;;
58820;SDS011;70670;52.476;13.334;2023-07-02T06:36:56;4.63;;;2.10;;
58820;SDS011;70670;52.476;13.334;2023-07-02T06:39:22;2.78;;;1.80;;
58820;SDS011;70670;52.476;13.334;2023-07-02T06:41:48;4.75;;;2.10;;
58820;SDS011;70670;52.476;13.334;2023-07-02T06:44:13;3.42;;;1.83;;
58820;SDS011;70670;52.476;13.334;2023-07-02T06:46:39;2.58;;;1.98;;
58820;SDS011;70670;52.476;13.334;2023-07-02T06:49:05;3.65;;;2.10;;
58820;SDS011;70670;52.476;13.334;2023-07-02T06:51:30;10.10;;;2.15;;
58820;SDS011;70670;52.476;13.334;2023-07-02T06:53:56;4.22;;;1.92;;
58820;SDS011;70670;52.476;13.334;2023-07-02T06:56:21;4.13;;;2.10;;
58820;SDS011;70670;52.476;13.334;2023-07-02T06:58:47;5.60;;;2.17;;
58820;SDS011;70670;52.476;13.334;2023-07-02T07:01:13;3.10;;;2.20;;
58820;SDS011;70670;52.476;13.334;2023-07-02T07:03:38;8.35;;;2.20;;
58820;SDS011;70670;52.476;13.334;2023-07-02T07:06:04;3.60;;;2.10;;
58820;SDS011;70670;52.476;13.334;2023-07-02T07:08:30;4.15;;;2.13;;
58820;SDS011;70670;52.476;13.334;2023-07-02T07:10:55;4.63;;;2.38;;
58820;SDS011;70670;52.476;13.334;2023-07-02T07:13:21;7.22;;;2.60;;
58820;SDS011;70670;52.476;13.334;2023-07-02T07:15:47;14.30;;;2.30;;
58820;SDS011;70670;52.476;13.334;2023-07-02T07:18:12;5.85;;;2.08;;
58820;SDS011;70670;52.476;13.334;2023-07-02T07:20:39;4.55;;;2.25;;
58820;SDS011;70670;52.476;13.334;2023-07-02T07:23:05;7.05;;;2.00;;
58820;SDS011;70670;52.476;13.334;2023-07-02T07:25:31;3.42;;;2.10;;
58820;SDS011;70670;52.476;13.334;2023-07-02T07:27:57;4.57;;;2.20;;
58820;SDS011;70670;52.476;13.334;2023-07-02T07:30:24;9.27;;;2.55;;
58820;SDS011;70670;52.476;13.334;2023-07-02T07:32:50;6.30;;;2.15;;
58820;SDS011;70670;52.476;13.334;2023-07-02T07:35:17;7.05;;;1.80;;
58820;SDS011;70670;52.476;13.334;2023-07-02T07:37:43;5.70;;;2.13;;
58820;SDS011;70670;52.476;13.334;2023-07-02T07:40:09;3.47;;;2.03;;
58820;SDS011;70670;52.476;13.334;2023-07-02T07:42:35;6.63;;;3.03;;
58820;SDS011;70670;52.476;13.334;2023-07-02T07:45:02;5.10;;;2.15;;
58820;SDS011;70670;52.476;13.334;2023-07-02T07:47:28;8.18;;;2.65;;
58820;SDS011;70670;52.476;13.334;2023-07-02T07:49:54;2.20;;;2.00;;
58820;SDS011;70670;52.476;13.334;2023-07-02T07:52:20;4.15;;;2.05;;
58820;SDS011;70670;52.476;13.334;2023-07-02T07:54:46;2.70;;;1.88;;
58820;SDS011;70670;52.476;13.334;2023-07-02T07:57:11;5.68;;;2.20;;
58820;SDS011;70670;52.476;13.334;2023-07-02T07:59:37;4.57;;;2.20;;
58820;SDS011;70670;52.476;13.334;2023-07-02T08:02:03;5.15;;;2.10;;
58820;SDS011;70670;52.476;13.334;2023-07-02T08:04:28;4.22;;;2.80;;
58820;SDS011;70670;52.476;13.334;2023-07-02T08:06:54;4.10;;;2.05;;
58820;SDS011;70670;52.476;13.334;2023-07-02T08:09:20;6.22;;;2.47;;
58820;SDS011;70670;52.476;13.334;2023-07-02T08:11:46;4.20;;;2.20;;
58820;SDS011;70670;52.476;13.334;2023-07-02T08:14:12;5.00;;;1.90;;
58820;SDS011;70670;52.476;13.334;2023-07-02T08:16:38;4.40;;;2.35;;
58820;SDS011;70670;52.476;13.334;2023-07-02T08:19:03;3.83;;;2.28;;
58820;SDS011;70670;52.476;13.334;2023-07-02T08:21:30;5.63;;;2.30;;
58820;SDS011;70670;52.476;13.334;2023-07-02T08:23:56;1.70;;;1.55;;
58820;SDS011;70670;52.476;13.334;2023-07-02T08:26:23;5.07;;;2.40;;
58820;SDS011;70670;52.476;13.334;2023-07-02T08:28:48;9.45;;;3.08;;
58820;SDS011;70670;52.476;13.334;2023-07-02T08:31:14;7.30;;;3.75;;
58820;SDS011;70670;52.476;13.334;2023-07-02T08:33:40;5.07;;;2.05;;
58820;SDS011;70670;52.476;13.334;2023-07-02T08:36:05;4.70;;;2.53;;
58820;SDS011;70670;52.476;13.334;2023-07-02T08:38:31;6.05;;;3.13;;
58820;SDS011;70670;52.476;13.334;2023-07-02T08:40:57;5.32;;;3.20;;
58820;SDS011;70670;52.476;13.334;2023-07-02T08:43:23;9.57;;;3.42;;
58820;SDS011;70670;52.476;13.334;2023-07-02T08:48:17;6.78;;;2.95;;
58820;SDS011;70670;52.476;13.334;2023-07-02T08:50:48;8.32;;;3.00;;
58820;SDS011;70670;52.476;13.334;2023-07-02T08:53:14;4.95;;;2.47;;
58820;SDS011;70670;52.476;13.334;2023-07-02T08:55:40;6.78;;;3.13;;
58820;SDS011;70670;52.476;13.334;2023-07-02T08:58:05;5.22;;;3.10;;
58820;SDS011;70670;52.476;13.334;2023-07-02T09:00:31;5.35;;;2.80;;
58820;SDS011;70670;52.476;13.334;2023-07-02T09:03:16;7.15;;;3.30;;
58820;SDS011;70670;52.476;13.334;2023-07-02T09:05:51;4.13;;;2.67;;
58820;SDS011;70670;52.476;13.334;2023-07-02T09:08:24;9.90;;;3.00;;
58820;SDS011;70670;52.476;13.334;2023-07-02T09:10:50;8.73;;;3.17;;
58820;SDS011;70670;52.476;13.334;2023-07-02T09:13:16;7.28;;;3.15;;
58820;SDS011;70670;52.476;13.334;2023-07-02T09:15:42;9.85;;;3.30;;
58820;SDS011;70670;52.476;13.334;2023-07-02T09:18:16;6.93;;;3.47;;
58820;SDS011;70670;52.476;13.334;2023-07-02T09:20:46;7.18;;;3.40;;
58820;SDS011;70670;52.476;13.334;2023-07-02T09:23:11;6.57;;;3.35;;
58820;SDS011;70670;52.476;13.334;2023-07-02T09:25:38;10.23;;;3.88;;
58820;SDS011;70670;52.476;13.334;2023-07-02T09:28:14;8.63;;;3.90;;
58820;SDS011;70670;52.476;13.334;2023-07-02T09:30:54;6.75;;;3.28;;
58820;SDS011;70670;52.476;13.334;2023-07-02T09:33:22;7.10;;;3.30;;
58820;SDS011;70670;52.476;13.334;2023-07-02T09:35:49;8.45;;;3.83;;
58820;SDS011;70670;52.476;13.334;2023-07-02T09:38:16;7.10;;;4.10;;
58820;SDS011;70670;52.476;13.334;2023-07-02T09:40:44;7.88;;;3.42;;
58820;SDS011;70670;52.476;13.334;2023-07-02T09:43:11;7.15;;;4.05;;
58820;SDS011;70670;52.476;13.334;2023-07-02T09:45:38;7.45;;;4.30;;
58820;SDS011;70670;52.476;13.334;2023-07-02T09:48:07;5.43;;;3.00;;
58820;SDS011;70670;52.476;13.334;2023-07-02T09:50:34;10.15;;;4.93;;
58820;SDS011;70670;52.476;13.334;2023-07-02T09:53:02;9.45;;;4.40;;
58820;SDS011;70670;52.476;13.334;2023-07-02T09:55:29;8.45;;;4.05;;
58820;SDS011;70670;52.476;13.334;2023-07-02T09:57:54;8.38;;;4.20;;
58820;SDS011;70670;52.476;13.334;2023-07-02T10:00:20;13.48;;;4.85;;
58820;SDS011;70670;52.476;13.334;2023-07-02T10:02:49;8.93;;;4.22;;
58820;SDS011;70670;52.476;13.334;2023-07-02T10:05:28;8.32;;;3.85;;
58820;SDS011;70670;52.476;13.334;2023-07-02T10:07:57;6.10;;;2.55;;
58820;SDS011;70670;52.476;13.334;2023-07-02T10:10:30;13.18;;;4.82;;
58820;SDS011;70670;52.476;13.334;2023-07-02T10:12:56;8.95;;;3.60;;
58820;SDS011;70670;52.476;13.334;2023-07-02T10:15:29;10.90;;;5.07;;
58820;SDS011;70670;52.476;13.334;2023-07-02T10:20:32;8.75;;;2.97;;
58820;SDS011;70670;52.476;13.334;2023-07-02T10:23:05;12.43;;;5.00;;
58820;SDS011;70670;52.476;13.334;2023-07-02T10:25:32;10.63;;;4.80;;
58820;SDS011;70670;52.476;13.334;2023-07-02T10:28:15;12.20;;;4.97;;
58820;SDS011;70670;52.476;13.334;2023-07-02T10:30:42;9.20;;;3.85;;
58820;SDS011;70670;52.476;13.334;2023-07-02T10:33:15;12.23;;;4.78;;
58820;SDS011;70670;52.476;13.334;2023-07-02T10:35:42;13.30;;;5.20;;
58820;SDS011;70670;52.476;13.334;2023-07-02T10:40:55;10.35;;;5.40;;
58820;SDS011;70670;52.476;13.334;2023-07-02T10:43:28;12.15;;;5.43;;
58820;SDS011;70670;52.476;13.334;2023-07-02T10:45:55;12.20;;;5.88;;
58820;SDS011;70670;52.476;13.334;2023-07-02T10:48:21;11.93;;;5.45;;
58820;SDS011;70670;52.476;13.334;2023-07-02T10:50:47;15.27;;;5.50;;
58820;SDS011;70670;52.476;13.334;2023-07-02T10:53:16;10.15;;;5.35;;
58820;SDS011;70670;52.476;13.334;2023-07-02T10:55:42;12.38;;;5.43;;
58820;SDS011;70670;52.476;13.334;2023-07-02T10:58:09;17.38;;;4.13;;
58820;SDS011;70670;52.476;13.334;2023-07-02T11:03:20;14.13;;;5.82;;
58820;SDS011;70670;52.476;13.334;2023-07-02T11:05:47;10.10;;;5.35;;
58820;SDS011;70670;52.476;13.334;2023-07-02T11:08:14;8.45;;;3.63;;
58820;SDS011;70670;52.476;13.334;2023-07-02T11:10:40;12.52;;;5.90;;
58820;SDS011;70670;52.476;13.334;2023-07-02T11:13:21;13.23;;;4.75;;
58820;SDS011;70670;52.476;13.334;2023-07-02T11:15:47;13.43;;;6.03;;
58820;SDS011;70670;52.476;13.334;2023-07-02T11:18:13;14.13;;;6.10;;
58820;SDS011;70670;52.476;13.334;2023-07-02T11:20:41;16.92;;;6.20;;
58820;SDS011;70670;52.476;13.334;2023-07-02T11:23:18;16.17;;;5.70;;
58820;SDS011;70670;52.476;13.334;2023-07-02T11:28:22;13.48;;;4.93;;
58820;SDS011;70670;52.476;13.334;2023-07-02T11:30:48;19.35;;;6.40;;
58820;SDS011;70670;52.476;13.334;2023-07-02T11:33:14;17.48;;;5.10;;
58820;SDS011;70670;52.476;13.334;2023-07-02T11:35:40;13.20;;;5.68;;
58820;SDS011;70670;52.476;13.334;2023-07-02T11:38:05;16.52;;;5.10;;
58820;SDS011;70670;52.476;13.334;2023-07-02T11:40:32;17.15;;;6.15;;
58820;SDS011;70670;52.476;13.334;2023-07-02T11:42:57;9.90;;;5.35;;
58820;SDS011;70670;52.476;13.334;2023-07-02T11:45:23;14.38;;;4.68;;
58820;SDS011;70670;52.476;13.334;2023-07-02T11:47:48;13.73;;;6.13;;
58820;SDS011;70670;52.476;13.334;2023-07-02T11:50:14;17.75;;;6.97;;
58820;SDS011;70670;52.476;13.334;2023-07-02T11:52:40;15.82;;;6.07;;
58820;SDS011;70670;52.476;13.334;2023-07-02T11:55:06;14.63;;;5.68;;
58820;SDS011;70670;52.476;13.334;2023-07-02T11:57:31;14.43;;;5.40;;
58820;SDS011;70670;52.476;13.334;2023-07-02T11:59:57;11.40;;;5.25;;
58820;SDS011;70670;52.476;13.334;2023-07-02T12:02:23;15.40;;;5.97;;
58820;SDS011;70670;52.476;13.334;2023-07-02T12:04:49;12.95;;;5.22;;
58820;SDS011;70670;52.476;13.334;2023-07-02T12:07:15;12.13;;;4.70;;
58820;SDS011;70670;52.476;13.334;2023-07-02T12:09:41;16.55;;;4.90;;
58820;SDS011;70670;52.476;13.334;2023-07-02T12:12:06;12.13;;;5.43;;
58820;SDS011;70670;52.476;13.334;2023-07-02T12:14:32;16.48;;;6.28;;
58820;SDS011;70670;52.476;13.334;2023-07-02T12:16:58;25.67;;;7.03;;
58820;SDS011;70670;52.476;13.334;2023-07-02T12:19:24;11.70;;;5.72;;
58820;SDS011;70670;52.476;13.334;2023-07-02T12:21:49;15.02;;;5.85;;
58820;SDS011;70670;52.476;13.334;2023-07-02T12:24:15;13.45;;;5.90;;
58820;SDS011;70670;52.476;13.334;2023-07-02T12:26:42;7.88;;;3.40;;
58820;SDS011;70670;52.476;13.334;2023-07-02T12:29:08;14.25;;;5.18;;
58820;SDS011;70670;52.476;13.334;2023-07-02T12:31:33;13.63;;;6.03;;
58820;SDS011;70670;52.476;13.334;2023-07-02T12:33:59;12.75;;;6.20;;
58820;SDS011;70670;52.476;13.334;2023-07-02T12:36:24;16.40;;;6.13;;
58820;SDS011;70670;52.476;13.334;2023-07-02T12:38:50;15.30;;;6.15;;
58820;SDS011;70670;52.476;13.334;2023-07-02T12:41:16;12.68;;;6.07;;
58820;SDS011;70670;52.476;13.334;2023-07-02T12:43:41;14.75;;;5.70;;
58820;SDS011;70670;52.476;13.334;2023-07-02T12:46:07;12.90;;;5.43;;
58820;SDS011;70670;52.476;13.334;2023-07-02T12:48:33;11.50;;;5.88;;
58820;SDS011;70670;52.476;13.334;2023-07-02T12:50:59;12.40;;;6.00;;
58820;SDS011;70670;52.476;13.334;2023-07-02T12:53:26;14.80;;;5.82;;
58820;SDS011;70670;52.476;13.334;2023-07-02T12:55:52;12.45;;;6.18;;
58820;SDS011;70670;52.476;13.334;2023-07-02T12:58:18;15.15;;;5.68;;
58820;SDS011;70670;52.476;13.334;2023-07-02T13:00:44;14.55;;;6.47;;
58820;SDS011;70670;52.476;13.334;2023-07-02T13:03:11;12.15;;;5.78;;
58820;SDS011;70670;52.476;13.334;2023-07-02T13:05:38;12.60;;;5.70;;
58820;SDS011;70670;52.476;13.334;2023-07-02T13:08:04;11.70;;;4.93;;
58820;SDS011;70670;52.476;13.334;2023-07-02T13:10:30;16.48;;;5.97;;
58820;SDS011;70670;52.476;13.334;2023-07-02T13:12:56;18.30;;;7.22;;
58820;SDS011;70670;52.476;13.334;2023-07-02T13:15:22;17.55;;;6.40;;
58820;SDS011;70670;52.476;13.334;2023-07-02T13:17:48;17.42;;;6.22;;
58820;SDS011;70670;52.476;13.334;2023-07-02T13:20:13;12.00;;;5.80;;
58820;SDS011;70670;52.476;13.334;2023-07-02T13:22:39;10.77;;;5.57;;
58820;SDS011;70670;52.476;13.334;2023-07-02T13:25:05;13.68;;;6.20;;
58820;SDS011;70670;52.476;13.334;2023-07-02T13:27:32;13.27;;;6.35;;
58820;SDS011;70670;52.476;13.334;2023-07-02T13:29:58;14.10;;;5.18;;
58820;SDS011;70670;52.476;13.334;2023-07-02T13:32:23;17.35;;;5.70;;
58820;SDS011;70670;52.476;13.334;2023-07-02T13:34:49;14.23;;;6.30;;
58820;SDS011;70670;52.476;13.334;2023-07-02T13:37:15;13.18;;;5.95;;
58820;SDS011;70670;52.476;13.334;2023-07-02T13:39:44;12.15;;;5.40;;
58820;SDS011;70670;52.476;13.334;2023-07-02T13:42:10;11.38;;;5.63;;
58820;SDS011;70670;52.476;13.334;2023-07-02T13:44:35;14.00;;;6.47;;
58820;SDS011;70670;52.476;13.334;2023-07-02T13:47:01;18.45;;;5.70;;
58820;SDS011;70670;52.476;13.334;2023-07-02T13:49:27;16.77;;;5.90;;
58820;SDS011;70670;52.476;13.334;2023-07-02T13:51:52;13.07;;;6.22;;
58820;SDS011;70670;52.476;13.334;2023-07-02T13:54:18;12.55;;;5.75;;
58820;SDS011;70670;52.476;13.334;2023-07-02T13:56:44;15.57;;;6.47;;
58820;SDS011;70670;52.476;13.334;2023-07-02T13:59:11;11.50;;;4.97;;
58820;SDS011;70670;52.476;13.334;2023-07-02T14:01:36;13.82;;;5.47;;
58820;SDS011;70670;52.476;13.334;2023-07-02T14:04:02;11.18;;;5.25;;
58820;SDS011;70670;52.476;13.334;2023-07-02T14:06:28;24.33;;;6.65;;
58820;SDS011;70670;52.476;13.334;2023-07-02T14:08:54;15.25;;;6.38;;
58820;SDS011;70670;52.476;13.334;2023-07-02T14:11:20;26.52;;;6.45;;
58820;SDS011;70670;52.476;13.334;2023-07-02T14:13:47;16.60;;;5.32;;
58820;SDS011;70670;52.476;13.334;2023-07-02T14:16:13;16.65;;;5.65;;
58820;SDS011;70670;52.476;13.334;2023-07-02T14:18:39;14.00;;;6.25;;
58820;SDS011;70670;52.476;13.334;2023-07-02T14:21:04;22.48;;;6.13;;
58820;SDS011;70670;52.476;13.334;2023-07-02T14:23:30;12.10;;;4.97;;
58820;SDS011;70670;52.476;13.334;2023-07-02T14:25:55;12.95;;;6.47;;
58820;SDS011;70670;52.476;13.334;2023-07-02T14:28:21;11.93;;;5.35;;
58820;SDS011;70670;52.476;13.334;2023-07-02T14:30:47;12.98;;;5.50;;
58820;SDS011;70670;52.476;13.334;2023-07-02T14:33:14;11.43;;;5.38;;
58820;SDS011;70670;52.476;13.334;2023-07-02T14:35:39;10.40;;;5.18;;
58820;SDS011;70670;52.476;13.334;2023-07-02T14:38:06;12.18;;;4.45;;
58820;SDS011;70670;52.476;13.334;2023-07-02T14:40:32;12.88;;;5.10;;